createdAt,value
2019-01-16T00:00:27.690Z,1007.39
2019-01-16T00:01:27.666Z,1007.45
2019-01-16T00:02:27.624Z,1007.43
2019-01-16T00:03:27.586Z,1007.44
2019-01-16T00:04:27.555Z,1007.41
2019-01-16T00:05:27.521Z,1007.42
2019-01-16T00:06:27.484Z,1007.44
2019-01-16T00:07:27.445Z,1007.42
2019-01-16T00:08:27.407Z,1007.41
2019-01-16T00:09:27.367Z,1007.39
2019-01-16T00:10:27.332Z,1007.40
2019-01-16T00:11:27.296Z,1007.39
2019-01-16T00:12:27.267Z,1007.33
2019-01-16T00:13:27.225Z,1007.31
2019-01-16T00:14:27.185Z,1007.31
2019-01-16T00:15:27.150Z,1007.35
2019-01-16T00:16:27.121Z,1007.30
2019-01-16T00:17:27.085Z,1007.27
2019-01-16T00:18:27.042Z,1007.31
2019-01-16T00:19:27.001Z,1007.26
2019-01-16T00:20:26.975Z,1007.26
2019-01-16T00:21:26.936Z,1007.18
2019-01-16T00:22:26.891Z,1007.19
2019-01-16T00:23:26.862Z,1007.16
2019-01-16T00:24:26.825Z,1007.19
2019-01-16T00:25:26.800Z,1007.18
2019-01-16T00:26:26.756Z,1007.24
2019-01-16T00:27:26.716Z,1007.22
2019-01-16T00:28:26.688Z,1007.21
2019-01-16T00:29:26.646Z,1007.20
2019-01-16T00:30:26.602Z,1007.18
2019-01-16T00:31:26.572Z,1007.16
2019-01-16T00:32:26.536Z,1007.15
2019-01-16T00:33:26.502Z,1007.15
2019-01-16T00:34:26.489Z,1007.18
2019-01-16T00:35:26.430Z,1007.19
2019-01-16T00:36:26.382Z,1007.15
2019-01-16T00:37:26.341Z,1007.21
2019-01-16T00:38:26.313Z,1007.19
2019-01-16T00:39:26.273Z,1007.11
2019-01-16T00:40:26.241Z,1007.16
2019-01-16T00:41:26.211Z,1007.14
2019-01-16T00:42:26.167Z,1007.13
2019-01-16T00:43:26.136Z,1007.13
2019-01-16T00:44:26.098Z,1007.10
2019-01-16T00:45:26.057Z,1007.10
2019-01-16T00:46:26.032Z,1007.04
2019-01-16T00:47:25.986Z,1007.10
2019-01-16T00:48:25.948Z,1007.05
2019-01-16T00:49:25.916Z,1007.09
2019-01-16T00:50:25.872Z,1007.07
2019-01-16T00:51:25.838Z,1007.06
2019-01-16T00:52:25.812Z,1007.03
2019-01-16T00:53:25.766Z,1007.06
2019-01-16T00:54:25.729Z,1007.01
2019-01-16T00:55:25.693Z,1007.00
2019-01-16T00:56:25.658Z,1006.98
2019-01-16T00:57:25.629Z,1006.99
2019-01-16T00:58:25.586Z,1006.99
2019-01-16T00:59:25.582Z,1006.97
2019-01-16T01:00:25.514Z,1006.93
2019-01-16T01:01:25.473Z,1006.96
2019-01-16T01:02:25.438Z,1006.94
2019-01-16T01:03:25.407Z,1006.94
2019-01-16T01:04:25.366Z,1006.90
2019-01-16T01:05:25.334Z,1006.88
2019-01-16T01:06:25.309Z,1006.86
2019-01-16T01:07:25.269Z,1006.88
2019-01-16T01:08:25.227Z,1006.87
2019-01-16T01:09:25.184Z,1006.84
2019-01-16T01:10:25.154Z,1006.90
2019-01-16T01:11:25.118Z,1006.87
2019-01-16T01:12:25.082Z,1006.84
2019-01-16T01:13:25.036Z,1006.84
2019-01-16T01:14:25.008Z,1006.86
2019-01-16T01:15:24.977Z,1006.87
2019-01-16T01:16:24.930Z,1006.79
2019-01-16T01:17:24.895Z,1006.82
2019-01-16T01:18:32.001Z,1006.85
2019-01-16T01:19:24.834Z,1006.79
2019-01-16T01:20:24.790Z,1006.84
2019-01-16T01:21:24.748Z,1006.88
2019-01-16T01:22:24.718Z,1006.82
2019-01-16T01:23:24.673Z,1006.86
2019-01-16T01:24:24.645Z,1006.82
2019-01-16T01:25:24.598Z,1006.81
2019-01-16T01:26:24.560Z,1006.80
2019-01-16T01:27:24.531Z,1006.78
2019-01-16T01:28:24.528Z,1006.84
2019-01-16T01:29:24.466Z,1006.80
2019-01-16T01:30:24.426Z,1006.79
2019-01-16T01:31:24.385Z,1006.79
2019-01-16T01:32:24.375Z,1006.81
2019-01-16T01:33:24.310Z,1006.84
2019-01-16T01:34:24.275Z,1006.85
2019-01-16T01:35:24.236Z,1006.79
2019-01-16T01:36:24.199Z,1006.79
2019-01-16T01:37:24.161Z,1006.77
2019-01-16T01:38:24.132Z,1006.81
2019-01-16T01:39:24.088Z,1006.81
2019-01-16T01:40:24.055Z,1006.81
2019-01-16T01:41:24.024Z,1006.85
2019-01-16T01:42:23.984Z,1006.78
2019-01-16T01:43:23.944Z,1006.82
2019-01-16T01:44:23.910Z,1006.81
2019-01-16T01:45:23.875Z,1006.81
2019-01-16T01:46:23.846Z,1006.81
2019-01-16T01:47:23.795Z,1006.85
2019-01-16T01:48:23.770Z,1006.81
2019-01-16T01:49:23.729Z,1006.83
2019-01-16T01:50:23.689Z,1006.84
2019-01-16T01:51:23.651Z,1006.81
2019-01-16T01:52:23.617Z,1006.84
2019-01-16T01:53:23.580Z,1006.81
2019-01-16T01:54:23.552Z,1006.82
2019-01-16T01:55:23.515Z,1006.83
2019-01-16T01:56:23.476Z,1006.77
2019-01-16T01:57:23.437Z,1006.81
2019-01-16T01:58:23.404Z,1006.81
2019-01-16T01:59:23.366Z,1006.77
2019-01-16T02:00:23.330Z,1006.76
2019-01-16T02:01:23.293Z,1006.76
2019-01-16T02:02:23.261Z,1006.72
2019-01-16T02:03:23.224Z,1006.73
2019-01-16T02:04:23.176Z,1006.73
2019-01-16T02:05:23.153Z,1006.74
2019-01-16T02:06:23.120Z,1006.72
2019-01-16T02:07:23.081Z,1006.69
2019-01-16T02:08:23.033Z,1006.69
2019-01-16T02:09:22.991Z,1006.63
2019-01-16T02:10:22.967Z,1006.68
2019-01-16T02:11:22.927Z,1006.66
2019-01-16T02:12:22.892Z,1006.63
2019-01-16T02:13:22.851Z,1006.61
2019-01-16T02:14:22.817Z,1006.62
2019-01-16T02:15:22.784Z,1006.60
2019-01-16T02:16:22.742Z,1006.58
2019-01-16T02:17:31.434Z,1006.58
2019-01-16T02:19:27.132Z,1006.58
2019-01-16T02:20:27.068Z,1006.57
2019-01-16T02:21:27.158Z,1006.58
2019-01-16T02:22:26.991Z,1006.57
2019-01-16T02:23:26.957Z,1006.58
2019-01-16T02:24:26.917Z,1006.60
2019-01-16T02:25:26.878Z,1006.60
2019-01-16T02:26:26.846Z,1006.59
2019-01-16T02:27:26.817Z,1006.58
2019-01-16T02:28:26.777Z,1006.58
2019-01-16T02:29:26.743Z,1006.58
2019-01-16T02:30:26.709Z,1006.58
2019-01-16T02:31:26.671Z,1006.56
2019-01-16T02:32:26.750Z,1006.59
2019-01-16T02:33:26.590Z,1006.53
2019-01-16T02:34:26.544Z,1006.54
2019-01-16T02:35:26.516Z,1006.55
2019-01-16T02:36:26.478Z,1006.56
2019-01-16T02:37:26.452Z,1006.56
2019-01-16T02:38:26.404Z,1006.57
2019-01-16T02:39:26.378Z,1006.53
2019-01-16T02:40:26.335Z,1006.54
2019-01-16T02:41:26.298Z,1006.53
2019-01-16T02:42:26.264Z,1006.54
2019-01-16T02:43:26.235Z,1006.52
2019-01-16T02:44:26.212Z,1006.43
2019-01-16T02:45:26.165Z,1006.45
2019-01-16T02:46:26.114Z,1006.42
2019-01-16T02:47:26.079Z,1006.45
2019-01-16T02:48:26.044Z,1006.38
2019-01-16T02:49:26.013Z,1006.44
2019-01-16T02:50:25.977Z,1006.40
2019-01-16T02:51:25.954Z,1006.38
2019-01-16T02:52:25.902Z,1006.43
2019-01-16T02:53:25.868Z,1006.42
2019-01-16T02:54:25.838Z,1006.35
2019-01-16T02:55:25.800Z,1006.30
2019-01-16T02:56:25.754Z,1006.30
2019-01-16T02:57:25.718Z,1006.28
2019-01-16T02:58:25.685Z,1006.31
2019-01-16T02:59:25.648Z,1006.27
2019-01-16T03:00:25.619Z,1006.22
2019-01-16T03:01:25.580Z,1006.27
2019-01-16T03:02:25.548Z,1006.23
2019-01-16T03:03:25.514Z,1006.28
2019-01-16T03:04:25.493Z,1006.23
2019-01-16T03:05:25.428Z,1006.20
2019-01-16T03:06:25.390Z,1006.19
2019-01-16T03:07:25.361Z,1006.19
2019-01-16T03:08:25.323Z,1006.21
2019-01-16T03:09:25.294Z,1006.22
2019-01-16T03:10:25.246Z,1006.22
2019-01-16T03:11:25.209Z,1006.22
2019-01-16T03:12:25.186Z,1006.24
2019-01-16T03:13:25.146Z,1006.26
2019-01-16T03:14:25.102Z,1006.19
2019-01-16T03:15:25.078Z,1006.20
2019-01-16T03:16:25.037Z,1006.21
2019-01-16T03:17:24.997Z,1006.20
2019-01-16T03:18:24.968Z,1006.20
2019-01-16T03:19:24.920Z,1006.21
2019-01-16T03:20:24.894Z,1006.16
2019-01-16T03:21:24.846Z,1006.12
2019-01-16T03:22:24.821Z,1006.11
2019-01-16T03:23:24.784Z,1006.10
2019-01-16T03:24:24.749Z,1006.12
2019-01-16T03:25:24.700Z,1006.06
2019-01-16T03:26:33.323Z,1006.04
2019-01-16T03:28:18.036Z,1005.96
2019-01-16T03:29:17.971Z,1005.94
2019-01-16T03:30:17.939Z,1005.90
2019-01-16T03:31:17.894Z,1005.86
2019-01-16T03:32:17.867Z,1005.82
2019-01-16T03:33:17.836Z,1005.85
2019-01-16T03:34:17.780Z,1005.86
2019-01-16T03:35:17.745Z,1005.78
2019-01-16T03:36:17.719Z,1005.78
2019-01-16T03:37:17.680Z,1005.73
2019-01-16T03:38:17.636Z,1005.74
2019-01-16T03:39:17.605Z,1005.71
2019-01-16T03:40:17.577Z,1005.71
2019-01-16T03:41:17.527Z,1005.69
2019-01-16T03:42:17.497Z,1005.64
2019-01-16T03:43:17.456Z,1005.64
2019-01-16T03:44:17.422Z,1005.60
2019-01-16T03:45:17.405Z,1005.59
2019-01-16T03:46:17.361Z,1005.58
2019-01-16T03:47:17.318Z,1005.52
2019-01-16T03:48:17.284Z,1005.52
2019-01-16T03:49:17.251Z,1005.48
2019-01-16T03:50:17.202Z,1005.52
2019-01-16T03:51:17.179Z,1005.48
2019-01-16T03:52:17.146Z,1005.52
2019-01-16T03:53:25.750Z,1005.48
2019-01-16T03:55:21.539Z,1005.49
2019-01-16T03:56:21.474Z,1005.49
2019-01-16T03:57:21.423Z,1005.52
2019-01-16T03:58:21.461Z,1005.44
2019-01-16T03:59:21.355Z,1005.52
2019-01-16T04:00:21.318Z,1005.48
2019-01-16T04:01:21.286Z,1005.51
2019-01-16T04:02:21.268Z,1005.49
2019-01-16T04:03:21.207Z,1005.52
2019-01-16T04:04:21.172Z,1005.50
2019-01-16T04:05:21.136Z,1005.44
2019-01-16T04:06:21.113Z,1005.51
2019-01-16T04:07:21.073Z,1005.46
2019-01-16T04:08:21.028Z,1005.43
2019-01-16T04:09:20.994Z,1005.48
2019-01-16T04:10:20.964Z,1005.40
2019-01-16T04:11:20.918Z,1005.41
2019-01-16T04:12:20.882Z,1005.36
2019-01-16T04:13:20.849Z,1005.34
2019-01-16T04:14:20.816Z,1005.27
2019-01-16T04:15:20.778Z,1005.29
2019-01-16T04:16:20.746Z,1005.27
2019-01-16T04:17:20.704Z,1005.29
2019-01-16T04:18:20.672Z,1005.29
2019-01-16T04:19:21.777Z,1005.25
2019-01-16T04:20:20.603Z,1005.20
2019-01-16T04:21:20.574Z,1005.20
2019-01-16T04:22:20.522Z,1005.20
2019-01-16T04:23:20.484Z,1005.20
2019-01-16T04:24:20.448Z,1005.28
2019-01-16T04:25:20.451Z,1005.19
2019-01-16T04:26:20.408Z,1005.18
2019-01-16T04:27:20.370Z,1005.15
2019-01-16T04:28:20.313Z,1005.23
2019-01-16T04:29:20.278Z,1005.17
2019-01-16T04:30:20.234Z,1005.15
2019-01-16T04:31:20.198Z,1005.11
2019-01-16T04:32:20.159Z,1005.15
2019-01-16T04:33:20.133Z,1005.12
2019-01-16T04:34:20.090Z,1005.10
2019-01-16T04:35:20.091Z,1005.06
2019-01-16T04:36:20.024Z,1005.07
2019-01-16T04:37:20.001Z,1005.05
2019-01-16T04:38:19.953Z,1005.08
2019-01-16T04:39:19.917Z,1005.05
2019-01-16T04:40:19.870Z,1005.03
2019-01-16T04:41:19.837Z,1005.04
2019-01-16T04:42:19.804Z,1005.01
2019-01-16T04:43:19.775Z,1005.02
2019-01-16T04:44:19.724Z,1005.00
2019-01-16T04:45:19.700Z,1005.01
2019-01-16T04:46:19.658Z,1005.00
2019-01-16T04:47:19.623Z,1004.99
2019-01-16T04:48:19.686Z,1004.98
2019-01-16T04:49:19.553Z,1004.96
2019-01-16T04:50:19.504Z,1004.95
2019-01-16T04:51:19.489Z,1004.92
2019-01-16T04:52:19.444Z,1004.93
2019-01-16T04:53:19.405Z,1004.95
2019-01-16T04:54:19.368Z,1004.88
2019-01-16T04:55:19.334Z,1004.87
2019-01-16T04:56:19.289Z,1004.88
2019-01-16T04:57:19.270Z,1004.87
2019-01-16T04:58:19.244Z,1004.85
2019-01-16T04:59:19.189Z,1004.83
2019-01-16T05:00:19.161Z,1004.83
2019-01-16T05:01:19.124Z,1004.84
2019-01-16T05:02:19.085Z,1004.81
2019-01-16T05:03:19.040Z,1004.83
2019-01-16T05:04:19.004Z,1004.81
2019-01-16T05:05:18.968Z,1004.78
2019-01-16T05:06:18.936Z,1004.82
2019-01-16T05:07:18.889Z,1004.84
2019-01-16T05:08:18.856Z,1004.81
2019-01-16T05:09:18.829Z,1004.81
2019-01-16T05:10:18.789Z,1004.82
2019-01-16T05:11:18.760Z,1004.79
2019-01-16T05:12:18.714Z,1004.83
2019-01-16T05:13:18.684Z,1004.82
2019-01-16T05:14:18.645Z,1004.83
2019-01-16T05:15:18.612Z,1004.81
2019-01-16T05:16:18.574Z,1004.83
2019-01-16T05:17:18.535Z,1004.81
2019-01-16T05:18:18.497Z,1004.80
2019-01-16T05:19:18.480Z,1004.78
2019-01-16T05:20:18.427Z,1004.79
2019-01-16T05:21:18.391Z,1004.79
2019-01-16T05:22:18.380Z,1004.79
2019-01-16T05:23:18.325Z,1004.73
2019-01-16T05:24:18.290Z,1004.71
2019-01-16T05:25:18.263Z,1004.70
2019-01-16T05:26:18.227Z,1004.67
2019-01-16T05:27:18.181Z,1004.71
2019-01-16T05:28:18.136Z,1004.72
2019-01-16T05:29:18.106Z,1004.78
2019-01-16T05:30:18.075Z,1004.70
2019-01-16T05:31:18.032Z,1004.77
2019-01-16T05:32:17.994Z,1004.77
2019-01-16T05:33:17.966Z,1004.75
2019-01-16T05:34:17.935Z,1004.76
2019-01-16T05:35:17.893Z,1004.77
2019-01-16T05:36:17.851Z,1004.78
2019-01-16T05:37:17.815Z,1004.71
2019-01-16T05:38:17.776Z,1004.67
2019-01-16T05:39:17.741Z,1004.66
2019-01-16T05:40:17.706Z,1004.62
2019-01-16T05:41:17.672Z,1004.66
2019-01-16T05:42:17.631Z,1004.67
2019-01-16T05:43:17.590Z,1004.61
2019-01-16T05:44:17.563Z,1004.56
2019-01-16T05:45:17.524Z,1004.58
2019-01-16T05:46:17.490Z,1004.62
2019-01-16T05:47:17.449Z,1004.58
2019-01-16T05:48:17.413Z,1004.56
2019-01-16T05:49:17.384Z,1004.51
2019-01-16T05:50:17.346Z,1004.49
2019-01-16T05:51:17.309Z,1004.47
2019-01-16T05:52:17.279Z,1004.50
2019-01-16T05:53:17.232Z,1004.48
2019-01-16T05:54:17.207Z,1004.47
2019-01-16T05:55:17.165Z,1004.44
2019-01-16T05:56:17.132Z,1004.42
2019-01-16T05:57:17.102Z,1004.43
2019-01-16T05:58:17.051Z,1004.40
2019-01-16T05:59:17.016Z,1004.42
2019-01-16T06:00:16.997Z,1004.42
2019-01-16T06:01:16.947Z,1004.40
2019-01-16T06:02:16.913Z,1004.37
2019-01-16T06:03:16.878Z,1004.41
2019-01-16T06:04:16.847Z,1004.42
2019-01-16T06:05:16.808Z,1004.42
2019-01-16T06:06:16.772Z,1004.41
2019-01-16T06:07:16.729Z,1004.42
2019-01-16T06:08:16.694Z,1004.40
2019-01-16T06:09:17.169Z,1004.39
2019-01-16T06:10:16.629Z,1004.38
2019-01-16T06:11:16.584Z,1004.39
2019-01-16T06:12:16.547Z,1004.38
2019-01-16T06:13:16.508Z,1004.38
2019-01-16T06:14:16.487Z,1004.40
2019-01-16T06:15:16.440Z,1004.42
2019-01-16T06:16:16.408Z,1004.38
2019-01-16T06:17:16.382Z,1004.42
2019-01-16T06:18:16.334Z,1004.39
2019-01-16T06:19:16.287Z,1004.41
2019-01-16T06:20:16.266Z,1004.34
2019-01-16T06:21:16.234Z,1004.38
2019-01-16T06:22:16.185Z,1004.39
2019-01-16T06:23:16.148Z,1004.41
2019-01-16T06:24:16.114Z,1004.42
2019-01-16T06:25:16.070Z,1004.38
2019-01-16T06:26:16.042Z,1004.37
2019-01-16T06:27:16.000Z,1004.34
2019-01-16T06:28:15.963Z,1004.38
2019-01-16T06:29:15.934Z,1004.37
2019-01-16T06:30:15.894Z,1004.34
2019-01-16T06:31:15.866Z,1004.34
2019-01-16T06:32:15.820Z,1004.31
2019-01-16T06:33:15.784Z,1004.31
2019-01-16T06:34:15.763Z,1004.33
2019-01-16T06:35:15.715Z,1004.28
2019-01-16T06:36:15.681Z,1004.26
2019-01-16T06:37:15.654Z,1004.34
2019-01-16T06:38:15.609Z,1004.37
2019-01-16T06:39:15.560Z,1004.32
2019-01-16T06:40:15.535Z,1004.34
2019-01-16T06:41:15.498Z,1004.34
2019-01-16T06:42:15.464Z,1004.34
2019-01-16T06:43:15.413Z,1004.32
2019-01-16T06:44:15.384Z,1004.30
2019-01-16T06:45:15.350Z,1004.25
2019-01-16T06:46:15.310Z,1004.30
2019-01-16T06:47:15.274Z,1004.24
2019-01-16T06:48:15.246Z,1004.26
2019-01-16T06:49:15.200Z,1004.25
2019-01-16T06:50:16.672Z,1004.25
2019-01-16T06:51:15.128Z,1004.27
2019-01-16T06:52:15.086Z,1004.24
2019-01-16T06:53:15.056Z,1004.24
2019-01-16T06:54:15.026Z,1004.26
2019-01-16T06:55:14.982Z,1004.32
2019-01-16T06:56:14.944Z,1004.33
2019-01-16T06:57:14.911Z,1004.35
2019-01-16T06:58:14.875Z,1004.32
2019-01-16T06:59:14.837Z,1004.37
2019-01-16T07:00:14.816Z,1004.33
2019-01-16T07:01:14.764Z,1004.35
2019-01-16T07:02:14.726Z,1004.33
2019-01-16T07:03:14.691Z,1004.30
2019-01-16T07:04:14.656Z,1004.32
2019-01-16T07:05:14.624Z,1004.36
2019-01-16T07:06:14.589Z,1004.35
2019-01-16T07:07:14.547Z,1004.32
2019-01-16T07:08:14.512Z,1004.33
2019-01-16T07:09:14.476Z,1004.30
2019-01-16T07:10:14.440Z,1004.33
2019-01-16T07:11:14.395Z,1004.32
2019-01-16T07:12:14.360Z,1004.33
2019-01-16T07:13:14.332Z,1004.35
2019-01-16T07:14:14.305Z,1004.38
2019-01-16T07:15:14.287Z,1004.36
2019-01-16T07:16:14.222Z,1004.30
2019-01-16T07:17:14.183Z,1004.33
2019-01-16T07:18:14.140Z,1004.32
2019-01-16T07:19:14.106Z,1004.35
2019-01-16T07:20:14.075Z,1004.35
2019-01-16T07:21:14.032Z,1004.37
2019-01-16T07:22:13.997Z,1004.36
2019-01-16T07:23:13.962Z,1004.37
2019-01-16T07:24:13.931Z,1004.35
2019-01-16T07:25:13.888Z,1004.38
2019-01-16T07:26:13.841Z,1004.36
2019-01-16T07:27:13.832Z,1004.36
2019-01-16T07:28:13.787Z,1004.32
2019-01-16T07:29:13.746Z,1004.33
2019-01-16T07:30:13.718Z,1004.37
2019-01-16T07:31:13.670Z,1004.37
2019-01-16T07:32:13.640Z,1004.37
2019-01-16T07:33:13.601Z,1004.35
2019-01-16T07:34:22.198Z,1004.32
2019-01-16T07:36:17.978Z,1004.30
2019-01-16T07:37:17.908Z,1004.30
2019-01-16T07:38:17.862Z,1004.30
2019-01-16T07:39:17.834Z,1004.27
2019-01-16T07:40:17.799Z,1004.26
2019-01-16T07:41:17.771Z,1004.27
2019-01-16T07:42:17.726Z,1004.28
2019-01-16T07:43:17.679Z,1004.29
2019-01-16T07:44:17.656Z,1004.30
2019-01-16T07:45:17.616Z,1004.26
2019-01-16T07:46:17.604Z,1004.27
2019-01-16T07:47:17.532Z,1004.29
2019-01-16T07:48:17.501Z,1004.33
2019-01-16T07:49:17.476Z,1004.40
2019-01-16T07:50:17.713Z,1004.44
2019-01-16T07:51:17.393Z,1004.43
2019-01-16T07:52:17.355Z,1004.39
2019-01-16T07:53:17.319Z,1004.38
2019-01-16T07:54:17.282Z,1004.33
2019-01-16T07:55:17.237Z,1004.33
2019-01-16T07:56:17.237Z,1004.34
2019-01-16T07:57:17.174Z,1004.34
2019-01-16T07:58:17.139Z,1004.32
2019-01-16T07:59:21.726Z,1004.38
2019-01-16T08:00:17.059Z,1004.38
2019-01-16T08:01:17.027Z,1004.35
2019-01-16T08:02:16.988Z,1004.35
2019-01-16T08:03:16.958Z,1004.34
2019-01-16T08:04:16.919Z,1004.32
2019-01-16T08:05:16.883Z,1004.36
2019-01-16T08:06:16.838Z,1004.38
2019-01-16T08:07:16.802Z,1004.38
2019-01-16T08:08:16.764Z,1004.39
2019-01-16T08:09:16.752Z,1004.43
2019-01-16T08:10:16.693Z,1004.43
2019-01-16T08:11:16.664Z,1004.46
2019-01-16T08:12:16.629Z,1004.46
2019-01-16T08:13:16.589Z,1004.50
2019-01-16T08:14:16.549Z,1004.50
2019-01-16T08:15:16.518Z,1004.54
2019-01-16T08:16:16.484Z,1004.49
2019-01-16T08:17:16.437Z,1004.54
2019-01-16T08:18:16.403Z,1004.45
2019-01-16T08:19:16.375Z,1004.43
2019-01-16T08:20:16.337Z,1004.47
2019-01-16T08:21:16.296Z,1004.51
2019-01-16T08:22:16.262Z,1004.44
2019-01-16T08:23:16.225Z,1004.41
2019-01-16T08:24:16.203Z,1004.42
2019-01-16T08:25:16.145Z,1004.41
2019-01-16T08:26:16.108Z,1004.44
2019-01-16T08:27:16.080Z,1004.38
2019-01-16T08:28:16.034Z,1004.42
2019-01-16T08:29:15.999Z,1004.40
2019-01-16T08:30:15.961Z,1004.45
2019-01-16T08:31:15.939Z,1004.47
2019-01-16T08:32:15.890Z,1004.42
2019-01-16T08:33:15.854Z,1004.45
2019-01-16T08:34:15.824Z,1004.45
2019-01-16T08:35:15.784Z,1004.47
2019-01-16T08:36:15.749Z,1004.38
2019-01-16T08:37:15.708Z,1004.41
2019-01-16T08:38:15.684Z,1004.41
2019-01-16T08:39:15.629Z,1004.41
2019-01-16T08:40:15.599Z,1004.42
2019-01-16T08:41:15.561Z,1004.41
2019-01-16T08:42:15.525Z,1004.45
2019-01-16T08:43:15.495Z,1004.46
2019-01-16T08:44:15.461Z,1004.43
2019-01-16T08:45:15.411Z,1004.36
2019-01-16T08:46:15.388Z,1004.38
2019-01-16T08:47:15.341Z,1004.39
2019-01-16T08:48:15.307Z,1004.37
2019-01-16T08:49:15.265Z,1004.35
2019-01-16T08:50:15.244Z,1004.31
2019-01-16T08:51:15.195Z,1004.31
2019-01-16T08:52:15.155Z,1004.26
2019-01-16T08:53:15.117Z,1004.25
2019-01-16T08:54:15.085Z,1004.22
2019-01-16T08:55:15.055Z,1004.24
2019-01-16T08:56:15.014Z,1004.28
2019-01-16T08:57:14.971Z,1004.28
2019-01-16T08:58:14.940Z,1004.26
2019-01-16T08:59:14.906Z,1004.26
2019-01-16T09:00:14.871Z,1004.23
2019-01-16T09:01:14.835Z,1004.20
2019-01-16T09:02:14.795Z,1004.22
2019-01-16T09:03:14.760Z,1004.18
2019-01-16T09:04:14.740Z,1004.22
2019-01-16T09:05:14.674Z,1004.25
2019-01-16T09:06:14.642Z,1004.30
2019-01-16T09:07:14.612Z,1004.23
2019-01-16T09:08:14.571Z,1004.24
2019-01-16T09:09:14.532Z,1004.26
2019-01-16T09:10:14.511Z,1004.27
2019-01-16T09:11:14.470Z,1004.29
2019-01-16T09:12:14.427Z,1004.24
2019-01-16T09:13:14.400Z,1004.23
2019-01-16T09:14:14.355Z,1004.16
2019-01-16T09:15:14.327Z,1004.14
2019-01-16T09:16:14.281Z,1004.17
2019-01-16T09:17:14.241Z,1004.25
2019-01-16T09:18:14.211Z,1004.29
2019-01-16T09:19:14.177Z,1004.27
2019-01-16T09:20:14.147Z,1004.25
2019-01-16T09:21:14.102Z,1004.20
2019-01-16T09:22:14.071Z,1004.25
2019-01-16T09:23:14.024Z,1004.21
2019-01-16T09:24:13.988Z,1004.21
2019-01-16T09:25:13.948Z,1004.20
2019-01-16T09:26:13.912Z,1004.25
2019-01-16T09:27:13.879Z,1004.18
2019-01-16T09:28:13.842Z,1004.20
2019-01-16T09:29:13.814Z,1004.18
2019-01-16T09:30:13.764Z,1004.14
2019-01-16T09:31:13.729Z,1004.12
2019-01-16T09:32:13.698Z,1004.14
2019-01-16T09:33:13.663Z,1004.14
2019-01-16T09:34:13.632Z,1004.17
2019-01-16T09:35:13.588Z,1004.12
2019-01-16T09:36:13.554Z,1004.07
2019-01-16T09:37:13.517Z,1004.06
2019-01-16T09:38:13.474Z,1004.04
2019-01-16T09:39:13.438Z,1004.08
2019-01-16T09:40:13.404Z,1004.06
2019-01-16T09:41:13.446Z,1004.06
2019-01-16T09:42:13.342Z,1004.01
2019-01-16T09:43:13.298Z,1004.00
2019-01-16T09:44:13.259Z,1003.94
2019-01-16T09:45:13.222Z,1003.93
2019-01-16T09:46:13.177Z,1003.84
2019-01-16T09:47:13.157Z,1003.83
2019-01-16T09:48:13.112Z,1003.83
2019-01-16T09:49:13.068Z,1003.81
2019-01-16T09:50:13.044Z,1003.82
2019-01-16T09:51:13.006Z,1003.83
2019-01-16T09:52:12.964Z,1003.81
2019-01-16T09:53:12.934Z,1003.81
2019-01-16T09:54:12.895Z,1003.83
2019-01-16T09:55:12.853Z,1003.75
2019-01-16T09:56:12.833Z,1003.77
2019-01-16T09:57:12.784Z,1003.76
2019-01-16T09:58:12.745Z,1003.73
2019-01-16T09:59:12.712Z,1003.66
2019-01-16T10:00:12.678Z,1003.71
2019-01-16T10:01:12.665Z,1003.70
2019-01-16T10:02:12.595Z,1003.72
2019-01-16T10:03:12.574Z,1003.70
2019-01-16T10:04:12.526Z,1003.63
2019-01-16T10:05:12.499Z,1003.63
2019-01-16T10:06:12.453Z,1003.63
2019-01-16T10:07:12.417Z,1003.64
2019-01-16T10:08:12.409Z,1003.63
2019-01-16T10:09:12.345Z,1003.65
2019-01-16T10:10:12.303Z,1003.65
2019-01-16T10:11:12.270Z,1003.63
2019-01-16T10:12:12.242Z,1003.58
2019-01-16T10:13:12.199Z,1003.56
2019-01-16T10:14:12.168Z,1003.50
2019-01-16T10:15:12.145Z,1003.47
2019-01-16T10:16:12.083Z,1003.49
2019-01-16T10:17:12.058Z,1003.49
2019-01-16T10:18:12.024Z,1003.46
2019-01-16T10:19:11.984Z,1003.43
2019-01-16T10:20:11.949Z,1003.47
2019-01-16T10:21:11.899Z,1003.39
2019-01-16T10:22:11.896Z,1003.42
2019-01-16T10:23:11.835Z,1003.40
2019-01-16T10:24:11.809Z,1003.38
2019-01-16T10:25:11.760Z,1003.36
2019-01-16T10:26:11.731Z,1003.33
2019-01-16T10:27:11.682Z,1003.30
2019-01-16T10:28:11.660Z,1003.34
2019-01-16T10:29:11.619Z,1003.30
2019-01-16T10:30:11.576Z,1003.35
2019-01-16T10:31:11.546Z,1003.30
2019-01-16T10:32:11.500Z,1003.32
2019-01-16T10:33:11.465Z,1003.34
2019-01-16T10:34:11.436Z,1003.38
2019-01-16T10:35:11.402Z,1003.32
2019-01-16T10:36:11.360Z,1003.31
2019-01-16T10:37:11.317Z,1003.36
2019-01-16T10:38:11.285Z,1003.31
2019-01-16T10:39:11.255Z,1003.24
2019-01-16T10:40:11.217Z,1003.20
2019-01-16T10:41:11.182Z,1003.20
2019-01-16T10:42:11.140Z,1003.23
2019-01-16T10:43:11.102Z,1003.19
2019-01-16T10:44:11.061Z,1003.18
2019-01-16T10:45:11.035Z,1003.20
2019-01-16T10:46:10.992Z,1003.16
2019-01-16T10:47:10.951Z,1003.17
2019-01-16T10:48:10.933Z,1003.12
2019-01-16T10:49:10.888Z,1003.10
2019-01-16T10:50:10.850Z,1003.05
2019-01-16T10:51:10.815Z,1003.02
2019-01-16T10:52:10.774Z,1003.06
2019-01-16T10:53:10.730Z,1003.01
2019-01-16T10:54:10.701Z,1003.01
2019-01-16T10:55:10.662Z,1002.97
2019-01-16T10:56:10.686Z,1002.98
2019-01-16T10:57:10.589Z,1002.93
2019-01-16T10:58:10.551Z,1002.92
2019-01-16T10:59:10.514Z,1002.91
2019-01-16T11:00:10.487Z,1002.93
2019-01-16T11:01:10.438Z,1002.87
2019-01-16T11:02:10.414Z,1002.86
2019-01-16T11:03:10.373Z,1002.82
2019-01-16T11:04:10.336Z,1002.83
2019-01-16T11:05:10.307Z,1002.77
2019-01-16T11:06:10.257Z,1002.73
2019-01-16T11:07:10.234Z,1002.73
2019-01-16T11:08:10.198Z,1002.71
2019-01-16T11:09:10.156Z,1002.72
2019-01-16T11:10:10.116Z,1002.72
2019-01-16T11:11:16.034Z,1002.67
2019-01-16T11:12:10.042Z,1002.67
2019-01-16T11:13:10.023Z,1002.63
2019-01-16T11:14:09.969Z,1002.65
2019-01-16T11:15:09.939Z,1002.65
2019-01-16T11:16:09.897Z,1002.58
2019-01-16T11:17:09.858Z,1002.55
2019-01-16T11:18:09.819Z,1002.52
2019-01-16T11:19:09.784Z,1002.48
2019-01-16T11:20:09.753Z,1002.50
2019-01-16T11:21:11.187Z,1002.49
2019-01-16T11:22:09.686Z,1002.50
2019-01-16T11:23:09.642Z,1002.46
2019-01-16T11:24:09.607Z,1002.44
2019-01-16T11:25:09.582Z,1002.43
2019-01-16T11:26:09.538Z,1002.41
2019-01-16T11:27:09.504Z,1002.36
2019-01-16T11:28:09.469Z,1002.35
2019-01-16T11:29:09.453Z,1002.31
2019-01-16T11:30:09.395Z,1002.31
2019-01-16T11:31:09.367Z,1002.29
2019-01-16T11:32:09.315Z,1002.26
2019-01-16T11:33:09.304Z,1002.19
2019-01-16T11:34:09.252Z,1002.19
2019-01-16T11:35:09.207Z,1002.12
2019-01-16T11:36:09.180Z,1002.12
2019-01-16T11:37:09.133Z,1002.11
2019-01-16T11:38:09.095Z,1002.05
2019-01-16T11:39:09.060Z,1002.05
2019-01-16T11:40:09.031Z,1002.01
2019-01-16T11:41:08.989Z,1001.99
2019-01-16T11:42:08.953Z,1001.97
2019-01-16T11:43:08.929Z,1001.99
2019-01-16T11:44:08.883Z,1001.96
2019-01-16T11:45:08.855Z,1001.97
2019-01-16T11:46:08.807Z,1001.97
2019-01-16T11:47:08.777Z,1001.96
2019-01-16T11:48:08.738Z,1001.94
2019-01-16T11:49:08.708Z,1001.94
2019-01-16T11:50:08.665Z,1001.93
2019-01-16T11:51:08.630Z,1001.95
2019-01-16T11:52:08.601Z,1001.94
2019-01-16T11:53:08.563Z,1001.91
2019-01-16T11:54:08.515Z,1001.87
2019-01-16T11:55:08.481Z,1001.95
2019-01-16T11:56:08.451Z,1001.89
2019-01-16T11:57:08.418Z,1001.93
2019-01-16T11:58:08.374Z,1001.83
2019-01-16T11:59:08.341Z,1001.83
2019-01-16T12:00:08.305Z,1001.82
2019-01-16T12:01:08.270Z,1001.79
2019-01-16T12:02:08.230Z,1001.72
2019-01-16T12:03:08.197Z,1001.70
2019-01-16T12:04:08.156Z,1001.73
2019-01-16T12:05:08.135Z,1001.70
2019-01-16T12:06:08.085Z,1001.65
2019-01-16T12:07:08.048Z,1001.58
2019-01-16T12:08:08.010Z,1001.58
2019-01-16T12:09:07.986Z,1001.53